Time;durP1;ratioP1;P1;durP2;ratioP2;P2;SDS_P1;SDS_P2;PMS_P1;PMS_P2;Temp;Humidity;BMP_temperature;BMP_pressure;BME280_temperature;BME280_humidity;BME280_pressure;Samples;Min_cycle;Max_cycle;Signal;HPM_P1;HPM_P2
2022/06/18 00:00:26;;;;;;;69.15;52.65;;;26.30;54.00;;;;;;4944117;28;96136;-73
2022/06/18 00:02:52;;;;;;;67.38;52.65;;;26.30;53.90;;;;;;4952309;28;90023;-72
2022/06/18 00:05:20;;;;;;;66.60;52.15;;;26.30;54.00;;;;;;4950092;28;90675;-72
2022/06/18 00:07:51;;;;;;;68.75;52.65;;;26.30;54.10;;;;;;4950055;28;91991;-72
2022/06/18 00:10:22;;;;;;;68.10;52.83;;;26.30;54.10;;;;;;4954594;28;89749;-72
2022/06/18 00:15:37;;;;;;;68.22;52.70;;;26.30;54.20;;;;;;4952145;28;91012;-73
2022/06/18 00:18:05;;;;;;;67.00;52.40;;;26.30;54.20;;;;;;4935830;28;90205;-72
2022/06/18 00:20:34;;;;;;;67.35;52.55;;;26.30;54.20;;;;;;4953385;28;91067;-72
2022/06/18 00:23:01;;;;;;;67.93;52.75;;;26.30;54.20;;;;;;4941260;28;90335;-72
2022/06/18 00:25:39;;;;;;;68.07;52.55;;;26.20;54.20;;;;;;4956588;28;94989;-72
2022/06/18 00:28:15;;;;;;;68.25;52.67;;;26.30;54.30;;;;;;4953717;28;90169;-72
2022/06/18 00:30:41;;;;;;;67.20;52.63;;;26.30;54.20;;;;;;4952362;28;89996;-72
2022/06/18 00:33:08;;;;;;;68.15;52.60;;;26.30;54.20;;;;;;4944378;28;91152;-72
2022/06/18 00:35:34;;;;;;;67.47;52.63;;;26.30;54.30;;;;;;4955719;28;90223;-72
2022/06/18 00:38:02;;;;;;;67.55;52.45;;;26.20;54.20;;;;;;4936136;28;92016;-72
2022/06/18 00:40:42;;;;;;;67.07;52.47;;;26.30;54.30;;;;;;4956853;28;90055;-72
2022/06/18 00:43:47;;;;;;;67.47;52.73;;;26.30;54.30;;;;;;4944174;28;91935;-73
2022/06/18 00:46:20;;;;;;;66.97;52.42;;;26.20;54.20;;;;;;4918106;28;91642;-72
2022/06/18 00:49:23;;;;;;;67.13;52.47;;;26.30;54.40;;;;;;4953845;28;91030;-73
2022/06/18 00:52:02;;;;;;;66.93;52.42;;;26.20;54.40;;;;;;4953285;28;92801;-72
2022/06/18 00:54:52;;;;;;;67.05;52.33;;;26.20;54.50;;;;;;4940195;28;89915;-72
2022/06/18 00:57:31;;;;;;;67.68;52.38;;;26.20;54.40;;;;;;4928772;28;94257;-72
2022/06/18 01:00:15;;;;;;;67.43;52.25;;;26.20;54.70;;;;;;4951684;28;89863;-72
2022/06/18 01:02:43;;;;;;;68.13;52.60;;;26.10;54.60;;;;;;4949702;28;89866;-72
2022/06/18 01:05:38;;;;;;;67.13;52.42;;;26.20;54.70;;;;;;4956144;28;89634;-73
2022/06/18 01:08:17;;;;;;;67.50;52.47;;;26.10;54.70;;;;;;4937254;28;90730;-72
2022/06/18 01:10:51;;;;;;;67.40;52.53;;;26.10;54.70;;;;;;4948822;28;91795;-73
2022/06/18 01:13:21;;;;;;;68.13;52.67;;;26.10;54.80;;;;;;4949520;28;89860;-73
2022/06/18 01:15:48;;;;;;;66.97;52.27;;;26.10;54.90;;;;;;4952329;28;92254;-72
2022/06/18 01:18:14;;;;;;;68.75;52.45;;;26.00;55.00;;;;;;4945847;28;92852;-73
2022/06/18 01:20:50;;;;;;;68.10;52.70;;;26.00;55.00;;;;;;4949047;28;91229;-73
2022/06/18 01:24:00;;;;;;;67.00;52.53;;;26.00;55.00;;;;;;4939688;28;90120;-72
2022/06/18 01:26:27;;;;;;;68.80;52.65;;;26.00;55.10;;;;;;4944446;28;89837;-72
2022/06/18 01:28:53;;;;;;;67.40;52.72;;;26.00;55.10;;;;;;4942765;28;90018;-72
2022/06/18 01:31:19;;;;;;;67.70;52.35;;;26.00;55.20;;;;;;4953457;28;90282;-72
2022/06/18 01:33:46;;;;;;;66.95;52.35;;;26.00;55.20;;;;;;4953516;28;90202;-73
2022/06/18 01:36:13;;;;;;;67.18;52.30;;;25.90;55.20;;;;;;4955962;28;91090;-73
2022/06/18 01:38:44;;;;;;;66.95;52.40;;;25.90;55.20;;;;;;4934613;28;91779;-73
2022/06/18 01:44:12;;;;;;;66.90;52.35;;;25.90;55.40;;;;;;4943487;28;91966;-72
2022/06/18 01:46:42;;;;;;;68.30;52.50;;;25.80;55.40;;;;;;4952429;28;91392;-73
2022/06/18 01:49:11;;;;;;;66.30;52.22;;;25.80;55.50;;;;;;4952620;28;90181;-74
2022/06/18 01:51:41;;;;;;;66.63;52.33;;;25.80;55.50;;;;;;4925716;28;90738;-72
2022/06/18 01:54:21;;;;;;;66.68;52.20;;;25.80;55.50;;;;;;4925062;28;95248;-72
2022/06/18 01:56:59;;;;;;;67.05;52.20;;;25.80;55.60;;;;;;4944841;28;90589;-73
2022/06/18 01:59:33;;;;;;;67.90;52.45;;;25.80;55.70;;;;;;4944634;28;91364;-73
2022/06/18 02:01:59;;;;;;;67.28;52.35;;;25.80;55.70;;;;;;4932019;28;92597;-72
2022/06/18 02:04:27;;;;;;;67.35;52.45;;;25.80;55.70;;;;;;4926641;28;90405;-72
2022/06/18 02:06:54;;;;;;;67.25;52.78;;;25.70;55.70;;;;;;4946797;28;91111;-73
2022/06/18 02:09:36;;;;;;;67.20;52.38;;;25.70;55.80;;;;;;4948988;28;91009;-72
2022/06/18 02:12:07;;;;;;;66.93;52.42;;;25.70;55.90;;;;;;4943599;28;91936;-72
2022/06/18 02:14:34;;;;;;;;;;;25.60;55.90;;;;;;4936923;28;90143;-73
2022/06/18 02:17:03;;;;;;;67.95;52.17;;;25.60;56.00;;;;;;4956077;28;89863;-73
2022/06/18 02:19:29;;;;;;;67.07;52.08;;;25.60;56.10;;;;;;4950267;28;90185;-73
2022/06/18 02:21:58;;;;;;;67.88;52.40;;;25.50;56.10;;;;;;4948112;28;91572;-74
2022/06/18 02:24:24;;;;;;;69.78;52.38;;;25.50;56.20;;;;;;4951459;28;89548;-72
2022/06/18 02:26:49;;;;;;;66.95;52.25;;;25.50;56.30;;;;;;4950885;28;89865;-72
2022/06/18 02:29:20;;;;;;;67.43;52.33;;;25.40;56.40;;;;;;4944333;28;95880;-73
2022/06/18 02:31:46;;;;;;;67.47;52.57;;;25.50;56.40;;;;;;4944952;28;90868;-72
2022/06/18 02:34:19;;;;;;;67.38;52.42;;;25.50;56.30;;;;;;4945344;28;91989;-73
2022/06/18 02:36:45;;;;;;;67.20;52.30;;;25.40;56.30;;;;;;4957540;28;90870;-73
2022/06/18 02:39:23;;;;;;;66.75;52.42;;;25.40;56.40;;;;;;4942709;28;90440;-72
2022/06/18 02:41:49;;;;;;;68.30;52.40;;;25.40;56.50;;;;;;4946196;28;93354;-73
2022/06/18 02:44:15;;;;;;;67.18;52.53;;;25.40;56.40;;;;;;4943353;28;90964;-72
2022/06/18 02:46:42;;;;;;;67.25;52.58;;;25.40;56.40;;;;;;4954968;28;89569;-72
2022/06/18 02:49:11;;;;;;;67.05;52.47;;;25.40;56.50;;;;;;4942147;28;92459;-73
2022/06/18 02:51:37;;;;;;;66.47;52.15;;;25.30;56.50;;;;;;4952416;28;90690;-72
2022/06/18 02:54:04;;;;;;;66.88;52.53;;;25.40;56.50;;;;;;4945592;28;91979;-73
2022/06/18 02:56:30;;;;;;;66.28;52.25;;;25.40;56.60;;;;;;4945594;28;90001;-72
2022/06/18 02:58:55;;;;;;;66.68;52.35;;;25.30;56.60;;;;;;4945801;28;91636;-73
2022/06/18 03:01:24;;;;;;;67.55;52.45;;;25.30;56.60;;;;;;4947001;28;91621;-72
2022/06/18 03:03:53;;;;;;;66.78;52.55;;;25.30;56.70;;;;;;4950415;28;93993;-73
2022/06/18 03:06:22;;;;;;;67.10;52.20;;;25.30;56.60;;;;;;4950170;28;90427;-73
2022/06/18 03:08:49;;;;;;;66.68;52.22;;;25.30;56.70;;;;;;4930184;28;93091;-72
2022/06/18 03:13:59;;;;;;;67.30;52.13;;;25.20;56.70;;;;;;4948879;28;91392;-72
2022/06/18 03:16:26;;;;;;;66.50;52.08;;;25.20;56.80;;;;;;4956007;28;89250;-72
2022/06/18 03:18:55;;;;;;;66.35;52.00;;;25.10;56.90;;;;;;4950415;28;90921;-73
2022/06/18 03:21:31;;;;;;;66.93;52.20;;;25.10;57.00;;;;;;4944965;28;90242;-72
2022/06/18 03:23:57;;;;;;;66.72;52.42;;;25.00;57.00;;;;;;4944314;28;92712;-72
2022/06/18 03:26:23;;;;;;;66.45;52.28;;;25.10;57.20;;;;;;4945157;28;90738;-72
2022/06/18 03:28:49;;;;;;;66.30;52.03;;;25.10;57.10;;;;;;4947145;28;93673;-73
2022/06/18 03:31:15;;;;;;;66.78;52.17;;;25.10;57.00;;;;;;4937793;28;91027;-72
2022/06/18 03:33:41;;;;;;;66.55;52.20;;;25.10;57.10;;;;;;4948432;28;89835;-73
2022/06/18 03:36:10;;;;;;;67.35;52.20;;;25.00;57.20;;;;;;4950653;28;89989;-73
2022/06/18 03:38:36;;;;;;;66.63;52.33;;;25.00;57.20;;;;;;4946309;28;95951;-72
2022/06/18 03:41:01;;;;;;;67.35;52.15;;;25.00;57.20;;;;;;4955871;28;90318;-72
2022/06/18 03:43:28;;;;;;;66.55;52.22;;;25.00;57.20;;;;;;4948594;28;99053;-72
2022/06/18 03:46:00;;;;;;;67.53;52.45;;;25.00;57.30;;;;;;4947928;28;92282;-72
2022/06/18 03:48:38;;;;;;;66.18;52.00;;;25.00;57.20;;;;;;4956493;28;92332;-72
2022/06/18 03:51:03;;;;;;;66.90;52.17;;;25.00;57.20;;;;;;4946573;28;90830;-73
2022/06/18 03:53:29;;;;;;;66.82;52.15;;;25.00;57.30;;;;;;4954360;28;89744;-72
2022/06/18 03:55:55;;;;;;;67.10;52.28;;;25.00;57.30;;;;;;4950735;28;90722;-73
2022/06/18 03:58:21;;;;;;;66.22;52.15;;;25.00;57.10;;;;;;4954340;28;90882;-72
2022/06/18 04:00:47;;;;;;;66.50;52.30;;;25.00;57.30;;;;;;4951578;28;98423;-73
2022/06/18 04:03:13;;;;;;;66.65;52.17;;;24.90;57.30;;;;;;4946983;28;90486;-72
2022/06/18 04:05:40;;;;;;;67.30;52.13;;;24.90;57.30;;;;;;4953753;28;89133;-72
2022/06/18 04:08:06;;;;;;;67.25;52.55;;;24.90;57.50;;;;;;4950744;28;91574;-72
2022/06/18 04:10:32;;;;;;;66.40;52.22;;;24.90;57.40;;;;;;4949531;28;91315;-72
2022/06/18 04:12:58;;;;;;;67.93;52.38;;;24.90;57.50;;;;;;4956365;28;90926;-72
2022/06/18 04:15:24;;;;;;;67.38;52.58;;;24.80;57.50;;;;;;4945973;28;89897;-72
2022/06/18 04:17:49;;;;;;;66.70;52.10;;;24.90;57.50;;;;;;4951138;28;90383;-72
2022/06/18 04:20:27;;;;;;;66.57;52.33;;;24.90;57.40;;;;;;4948000;28;90790;-72
2022/06/18 04:22:53;;;;;;;66.22;52.13;;;24.90;57.40;;;;;;4954590;28;91300;-72
2022/06/18 04:25:19;;;;;;;67.72;52.25;;;24.90;57.40;;;;;;4948673;28;90392;-73
2022/06/18 04:27:45;;;;;;;66.25;52.25;;;24.80;57.40;;;;;;4947660;28;91162;-73
2022/06/18 04:30:12;;;;;;;66.95;52.55;;;24.80;57.50;;;;;;4950479;28;89972;-72
2022/06/18 04:32:38;;;;;;;66.22;52.33;;;24.80;57.40;;;;;;4950181;28;90132;-74
2022/06/18 04:35:06;;;;;;;66.65;52.28;;;24.90;57.40;;;;;;4936672;28;90747;-73
2022/06/18 04:37:33;;;;;;;66.68;52.22;;;24.90;57.40;;;;;;4956199;28;91199;-73
2022/06/18 04:39:59;;;;;;;66.47;52.20;;;24.80;57.40;;;;;;4943569;28;91849;-73
2022/06/18 04:42:25;;;;;;;66.68;52.20;;;24.90;57.50;;;;;;4959486;28;91466;-73
2022/06/18 04:44:52;;;;;;;66.93;52.33;;;24.90;57.50;;;;;;4949200;28;91284;-72
2022/06/18 04:47:18;;;;;;;65.93;52.05;;;25.00;57.30;;;;;;4951226;28;90105;-72
2022/06/18 04:49:43;;;;;;;66.15;52.17;;;25.00;57.20;;;;;;4954624;28;90036;-72
2022/06/18 04:52:09;;;;;;;67.45;52.25;;;25.00;57.00;;;;;;4951127;28;90086;-73
2022/06/18 04:54:35;;;;;;;66.85;52.42;;;25.00;57.20;;;;;;4957874;28;89021;-73
2022/06/18 04:57:00;;;;;;;66.40;52.22;;;25.00;57.20;;;;;;4955092;28;91035;-73
2022/06/18 04:59:26;;;;;;;65.97;51.83;;;25.00;57.10;;;;;;4952759;28;90206;-73
2022/06/18 05:02:05;;;;;;;66.20;52.28;;;25.10;57.00;;;;;;4928695;28;97226;-72
2022/06/18 05:04:31;;;;;;;66.30;52.28;;;25.10;57.00;;;;;;4953695;28;89949;-73
2022/06/18 05:06:57;;;;;;;66.65;52.10;;;25.20;56.90;;;;;;4954502;28;91029;-73
2022/06/18 05:09:23;;;;;;;66.45;52.15;;;25.20;56.90;;;;;;4955517;28;90613;-73
2022/06/18 05:11:48;;;;;;;66.07;52.20;;;25.30;56.80;;;;;;4939343;28;90775;-73
2022/06/18 05:14:14;;;;;;;66.15;52.05;;;25.20;56.70;;;;;;4952633;28;89989;-73
2022/06/18 05:16:41;;;;;;;66.53;52.17;;;25.20;56.70;;;;;;4946307;28;91210;-73
2022/06/18 05:19:24;;;;;;;66.38;52.22;;;25.30;56.70;;;;;;4951657;28;90408;-73
2022/06/18 05:21:50;;;;;;;66.40;52.13;;;25.30;56.70;;;;;;4946282;28;90304;-73
2022/06/18 05:24:16;;;;;;;67.32;52.20;;;25.30;56.80;;;;;;4948499;28;94894;-73
2022/06/18 05:26:49;;;;;;;66.70;52.53;;;25.40;56.60;;;;;;4941221;28;92094;-73
2022/06/18 05:29:15;;;;;;;67.10;52.35;;;25.40;56.60;;;;;;4944840;28;91251;-72
2022/06/18 05:31:41;;;;;;;66.85;52.47;;;25.40;56.40;;;;;;4938698;28;91457;-72
2022/06/18 05:34:07;;;;;;;66.72;52.28;;;25.40;56.40;;;;;;4944881;28;89747;-74
2022/06/18 05:36:33;;;;;;;66.45;52.33;;;25.40;56.30;;;;;;4950531;28;90218;-74
2022/06/18 05:39:00;;;;;;;66.35;52.17;;;25.40;56.30;;;;;;4954863;28;91081;-74
2022/06/18 05:41:27;;;;;;;66.50;52.20;;;25.50;56.00;;;;;;4939385;28;90012;-74
2022/06/18 05:43:53;;;;;;;66.13;52.38;;;25.50;55.80;;;;;;4948637;28;88724;-72
2022/06/18 05:46:19;;;;;;;66.28;52.15;;;25.50;55.40;;;;;;4951055;28;90259;-70
2022/06/18 05:48:45;;;;;;;66.20;52.15;;;25.50;55.50;;;;;;4939725;28;96763;-74
2022/06/18 05:51:11;;;;;;;66.07;52.17;;;25.60;55.60;;;;;;4947080;28;90998;-74
2022/06/18 05:53:39;;;;;;;66.65;51.95;;;25.60;55.10;;;;;;4928086;28;90987;-75
2022/06/18 05:56:05;;;;;;;66.75;52.28;;;25.60;54.60;;;;;;4933188;28;90409;-72
2022/06/18 05:58:31;;;;;;;66.25;52.15;;;25.60;54.40;;;;;;4945780;28;91544;-75
2022/06/18 06:00:57;;;;;;;66.43;52.03;;;25.60;55.30;;;;;;4931270;28;89773;-70
2022/06/18 06:03:23;;;;;;;66.68;52.22;;;25.60;55.40;;;;;;4940858;28;90355;-71
2022/06/18 06:05:49;;;;;;;66.70;52.15;;;25.60;55.50;;;;;;4941895;28;92765;-73
2022/06/18 06:08:15;;;;;;;66.60;52.38;;;25.60;55.20;;;;;;4952191;28;90581;-73
2022/06/18 06:13:27;;;;;;;66.63;52.38;;;25.70;55.20;;;;;;4945462;28;91296;-72
2022/06/18 06:15:55;;;;;;;66.32;52.25;;;25.70;55.10;;;;;;4952078;28;91409;-71
2022/06/18 06:18:22;;;;;;;66.53;52.25;;;25.80;55.10;;;;;;4949132;28;90720;-74
2022/06/18 06:20:52;;;;;;;66.65;52.22;;;25.80;54.90;;;;;;4934546;28;89926;-73
2022/06/18 06:23:18;;;;;;;66.28;52.13;;;25.80;55.00;;;;;;4956575;28;90281;-71
2022/06/18 06:25:46;;;;;;;66.47;52.28;;;25.80;54.90;;;;;;4952711;28;90737;-73
2022/06/18 06:28:20;;;;;;;66.40;52.08;;;25.80;54.90;;;;;;4952911;28;90231;-70
2022/06/18 06:30:47;;;;;;;66.80;52.40;;;25.80;54.90;;;;;;4931008;28;89820;-74
2022/06/18 06:33:13;;;;;;;66.35;52.30;;;25.80;54.90;;;;;;4944099;28;89472;-74
2022/06/18 06:35:42;;;;;;;66.72;52.30;;;25.80;54.80;;;;;;4930935;28;95203;-74
2022/06/18 06:38:09;;;;;;;68.70;52.85;;;25.80;55.10;;;;;;4943639;28;92251;-71
2022/06/18 06:40:38;;;;;;;66.53;52.30;;;25.80;55.00;;;;;;4947821;28;90747;-74
2022/06/18 06:43:14;;;;;;;;;;;;;;;;;;;;;
2022/06/18 06:45:44;;;;;;;66.85;52.20;;;25.90;55.00;;;;;;4951865;28;118317;-70
2022/06/18 06:48:10;;;;;;;69.05;53.60;;;25.90;54.90;;;;;;4931197;28;91679;-72
2022/06/18 06:50:36;;;;;;;74.03;54.55;;;25.90;55.10;;;;;;4934186;28;90326;-70
2022/06/18 06:53:07;;;;;;;74.38;55.40;;;26.00;55.30;;;;;;4947503;28;91090;-72
2022/06/18 06:58:21;;;;;;;77.53;55.63;;;26.00;55.90;;;;;;4946146;28;94462;-72
2022/06/18 07:00:50;;;;;;;80.22;56.33;;;26.00;55.90;;;;;;4953944;28;90795;-74
2022/06/18 07:03:21;;;;;;;81.68;56.83;;;26.00;56.20;;;;;;4943536;28;89957;-72
2022/06/18 07:05:47;;;;;;;79.70;56.53;;;26.00;56.20;;;;;;4934967;28;96644;-74
2022/06/18 07:08:13;;;;;;;79.15;57.30;;;26.00;56.50;;;;;;4933558;28;90267;-72
2022/06/18 07:10:39;;;;;;;83.85;58.08;;;26.10;56.70;;;;;;4948107;28;90204;-72
2022/06/18 07:13:08;;;;;;;86.35;58.83;;;26.10;56.50;;;;;;4922956;28;90238;-70
2022/06/18 07:15:34;;;;;;;90.00;59.65;;;26.10;56.70;;;;;;4945488;28;97676;-71
2022/06/18 07:18:03;;;;;;;94.30;62.53;;;26.10;56.30;;;;;;4941905;28;91525;-71
2022/06/18 07:20:29;;;;;;;102.28;66.03;;;26.10;56.70;;;;;;4946156;28;89945;-71
2022/06/18 07:22:56;;;;;;;96.63;67.63;;;26.10;56.60;;;;;;4941515;28;89498;-72
2022/06/18 07:25:22;;;;;;;116.43;72.40;;;26.10;56.90;;;;;;4937118;28;91278;-73
2022/06/18 07:27:52;;;;;;;112.93;74.28;;;26.10;56.80;;;;;;4941970;28;95001;-72
2022/06/18 07:30:19;;;;;;;;;;;26.10;57.20;;;;;;4956595;28;91024;-74
2022/06/18 07:32:47;;;;;;;119.55;77.28;;;26.10;56.40;;;;;;4926623;28;92456;-73
2022/06/18 07:35:23;;;;;;;115.70;78.28;;;26.10;56.20;;;;;;4943598;28;96295;-73
2022/06/18 07:37:49;;;;;;;119.95;77.85;;;26.10;56.20;;;;;;4940111;28;89992;-71
2022/06/18 07:40:16;;;;;;;99.30;68.60;;;26.10;56.60;;;;;;4953355;28;90139;-73
2022/06/18 07:42:44;;;;;;;116.68;78.43;;;26.10;56.30;;;;;;4932659;28;93545;-72
2022/06/18 07:45:24;;;;;;;110.95;76.28;;;26.10;56.20;;;;;;4949505;28;92179;-74
2022/06/18 07:47:51;;;;;;;103.53;73.10;;;26.10;55.90;;;;;;4942011;28;89744;-74
2022/06/18 07:50:20;;;;;;;95.85;66.47;;;26.10;55.80;;;;;;4927688;28;91048;-73
2022/06/18 07:52:46;;;;;;;95.97;69.22;;;26.10;55.70;;;;;;4930491;28;93100;-73
2022/06/18 07:55:25;;;;;;;105.65;73.88;;;26.10;55.70;;;;;;4919918;28;92809;-73
2022/06/18 07:57:50;;;;;;;106.13;74.55;;;26.10;55.60;;;;;;4949997;28;91746;-69
2022/06/18 08:00:19;;;;;;;104.97;72.47;;;26.20;55.70;;;;;;4908715;28;92939;-72
2022/06/18 08:02:46;;;;;;;106.32;72.55;;;26.10;55.60;;;;;;4943087;28;89796;-71
2022/06/18 08:05:18;;;;;;;106.57;72.28;;;26.20;55.70;;;;;;4943986;28;90436;-72
2022/06/18 08:07:44;;;;;;;106.82;72.88;;;26.20;55.70;;;;;;4945992;28;91101;-72
2022/06/18 08:10:10;;;;;;;103.07;70.72;;;26.20;55.70;;;;;;4944786;28;90320;-72
2022/06/18 08:12:36;;;;;;;103.80;70.30;;;26.20;55.70;;;;;;4946506;28;91442;-71
2022/06/18 08:15:07;;;;;;;100.13;71.40;;;26.20;55.60;;;;;;4918659;28;92621;-73
2022/06/18 08:17:33;;;;;;;94.05;66.55;;;26.20;55.50;;;;;;4925119;28;90519;-70
2022/06/18 08:19:58;;;;;;;99.45;69.25;;;26.20;55.30;;;;;;4933270;28;91715;-70
2022/06/18 08:22:25;;;;;;;97.63;67.95;;;26.20;55.20;;;;;;4948602;28;90521;-74
2022/06/18 08:24:54;;;;;;;95.35;67.40;;;26.20;55.40;;;;;;4929776;28;90796;-70
2022/06/18 08:27:20;;;;;;;94.25;66.00;;;26.20;55.30;;;;;;4942616;28;91711;-74
2022/06/18 08:29:46;;;;;;;94.57;67.03;;;26.30;55.20;;;;;;4943678;28;90116;-73
2022/06/18 08:32:12;;;;;;;93.07;65.55;;;26.30;55.30;;;;;;4936343;28;93496;-74
2022/06/18 08:34:38;;;;;;;91.45;64.85;;;26.20;55.10;;;;;;4945240;28;90876;-72
2022/06/18 08:37:06;;;;;;;87.93;62.38;;;26.20;55.60;;;;;;4958485;28;89953;-75
2022/06/18 08:39:33;;;;;;;80.25;57.80;;;26.20;55.50;;;;;;4944854;28;90409;-74
2022/06/18 08:42:36;;;;;;;82.53;58.72;;;26.20;55.40;;;;;;4953507;28;91836;-74
2022/06/18 08:45:24;;;;;;;77.80;56.50;;;26.30;55.40;;;;;;4937142;28;95999;-72
2022/06/18 08:48:10;;;;;;;80.82;58.10;;;26.30;55.50;;;;;;4935074;28;91330;-73
2022/06/18 08:50:39;;;;;;;78.38;54.92;;;26.30;55.00;;;;;;4949763;28;91515;-73
2022/06/18 08:53:44;;;;;;;74.70;56.38;;;26.30;55.50;;;;;;4955866;28;90838;-72
2022/06/18 08:56:28;;;;;;;82.18;56.80;;;26.30;55.00;;;;;;4937529;28;91076;-71
2022/06/18 08:59:06;;;;;;;80.18;55.50;;;26.30;55.00;;;;;;4951990;28;95885;-74
2022/06/18 09:01:39;;;;;;;76.68;55.35;;;26.30;54.90;;;;;;4933469;28;91160;-73
2022/06/18 09:04:08;;;;;;;76.03;54.92;;;26.30;54.60;;;;;;4938089;28;89232;-72
2022/06/18 09:06:48;;;;;;;75.97;55.63;;;26.40;54.60;;;;;;4945683;28;93649;-73
2022/06/18 09:09:39;;;;;;;78.78;55.30;;;26.40;54.50;;;;;;4943364;28;91365;-73
2022/06/18 09:12:29;;;;;;;75.82;55.03;;;26.50;54.40;;;;;;4947575;28;90649;-73
2022/06/18 09:15:30;;;;;;;77.97;55.03;;;26.50;55.00;;;;;;4934583;28;89920;-73
2022/06/18 09:18:02;;;;;;;79.20;54.92;;;26.50;54.30;;;;;;4942989;28;90831;-73
2022/06/18 09:20:49;;;;;;;75.10;54.95;;;26.50;54.30;;;;;;4946799;28;90882;-73
2022/06/18 09:23:24;;;;;;;74.85;54.92;;;26.50;54.40;;;;;;4949750;28;94447;-72
2022/06/18 09:25:53;;;;;;;73.43;54.67;;;26.50;54.50;;;;;;4948503;28;91146;-72
2022/06/18 09:28:26;;;;;;;75.78;55.00;;;26.50;54.50;;;;;;4945424;28;94634;-72
2022/06/18 09:31:16;;;;;;;75.50;54.58;;;26.50;54.60;;;;;;4950604;28;90929;-72
2022/06/18 09:33:49;;;;;;;76.35;55.33;;;26.50;54.50;;;;;;4946484;28;90535;-73
2022/06/18 09:36:21;;;;;;;75.25;55.60;;;26.60;54.70;;;;;;4945210;28;91522;-72
2022/06/18 09:39:08;;;;;;;74.93;54.78;;;26.60;54.70;;;;;;4931786;28;93522;-73
2022/06/18 09:41:42;;;;;;;77.25;55.33;;;26.50;54.50;;;;;;4936030;28;91391;-73
2022/06/18 09:44:28;;;;;;;75.65;55.47;;;26.50;54.60;;;;;;4953489;28;89889;-71
2022/06/18 09:47:02;;;;;;;77.50;55.08;;;26.50;54.50;;;;;;4941878;28;89810;-72
2022/06/18 09:49:29;;;;;;;74.68;54.85;;;26.60;54.50;;;;;;4955396;28;98902;-73
2022/06/18 09:52:14;;;;;;;73.82;55.05;;;26.50;54.50;;;;;;4950064;28;89801;-73
2022/06/18 09:54:54;;;;;;;75.70;54.65;;;26.50;54.40;;;;;;4929402;28;92141;-73
2022/06/18 09:57:26;;;;;;;74.53;54.60;;;26.50;54.50;;;;;;4946225;28;90233;-71
2022/06/18 09:59:52;;;;;;;73.78;54.40;;;26.50;54.50;;;;;;4946891;28;92659;-73
2022/06/18 10:02:27;;;;;;;71.93;54.42;;;26.50;54.60;;;;;;4944395;28;91685;-73
2022/06/18 10:07:46;;;;;;;75.82;54.28;;;26.60;54.60;;;;;;4924980;28;90139;-73
2022/06/18 10:10:16;;;;;;;76.63;54.47;;;26.70;54.50;;;;;;4945819;28;90596;-74
2022/06/18 10:12:46;;;;;;;76.15;54.75;;;26.70;54.40;;;;;;4953080;28;91304;-73
2022/06/18 10:15:16;;;;;;;74.85;54.13;;;26.70;54.40;;;;;;4937318;28;89954;-73
2022/06/18 10:18:04;;;;;;;76.15;54.83;;;26.70;54.30;;;;;;4943868;28;90752;-73
2022/06/18 10:20:52;;;;;;;73.30;54.20;;;26.70;54.20;;;;;;4932988;28;90387;-73
2022/06/18 10:23:40;;;;;;;75.90;54.58;;;26.70;54.10;;;;;;4949685;28;89455;-73
2022/06/18 10:26:46;;;;;;;72.43;54.88;;;26.80;54.30;;;;;;4937572;28;90147;-73
2022/06/18 10:29:31;;;;;;;74.60;54.50;;;26.80;54.30;;;;;;4944417;28;90274;-73
2022/06/18 10:32:11;;;;;;;71.85;53.90;;;26.80;54.70;;;;;;4929256;28;92394;-73
2022/06/18 10:35:09;;;;;;;73.53;54.55;;;26.80;54.70;;;;;;4942692;28;90643;-73
2022/06/18 10:37:53;;;;;;;74.50;54.75;;;26.80;55.10;;;;;;4941026;28;91000;-73
2022/06/18 10:40:31;;;;;;;72.35;54.75;;;26.80;55.00;;;;;;4948067;28;92077;-73
2022/06/18 10:43:23;;;;;;;74.93;54.75;;;26.80;55.20;;;;;;4945477;28;90678;-73
2022/06/18 10:45:56;;;;;;;75.43;54.95;;;26.80;55.10;;;;;;4936502;28;91187;-73
2022/06/18 10:48:30;;;;;;;73.65;54.67;;;26.80;55.50;;;;;;4957713;28;90696;-72
2022/06/18 10:50:58;;;;;;;71.57;54.42;;;26.80;55.30;;;;;;4942516;28;89569;-73
2022/06/18 10:53:33;;;;;;;74.05;54.65;;;26.80;55.30;;;;;;4949965;28;89898;-73
2022/06/18 10:56:02;;;;;;;73.50;54.58;;;26.80;55.20;;;;;;4944167;28;91059;-73
2022/06/18 10:58:28;;;;;;;71.35;54.55;;;26.80;54.90;;;;;;4953085;28;91912;-73
2022/06/18 11:01:01;;;;;;;72.47;54.35;;;26.90;55.40;;;;;;4928399;28;92281;-72
2022/06/18 11:03:30;;;;;;;71.38;54.67;;;26.90;55.20;;;;;;4946570;28;92228;-73
2022/06/18 11:06:01;;;;;;;70.85;54.30;;;26.80;55.40;;;;;;4932695;28;90479;-73
2022/06/18 11:08:31;;;;;;;73.28;54.55;;;26.80;55.50;;;;;;4947618;28;89816;-73
2022/06/18 11:11:01;;;;;;;74.73;54.70;;;26.80;55.70;;;;;;4931594;28;89666;-73
2022/06/18 11:13:44;;;;;;;72.75;54.63;;;26.80;55.80;;;;;;4937751;28;91635;-70
2022/06/18 11:16:17;;;;;;;72.00;54.63;;;26.80;56.40;;;;;;4933677;28;92005;-72
2022/06/18 11:18:49;;;;;;;74.38;55.10;;;26.80;56.70;;;;;;4958194;28;90644;-73
2022/06/18 11:21:25;;;;;;;72.00;55.28;;;26.90;56.90;;;;;;4949345;28;89781;-73
2022/06/18 11:24:17;;;;;;;73.03;54.85;;;26.90;56.90;;;;;;4956974;28;91129;-73
2022/06/18 11:26:56;;;;;;;71.35;55.15;;;27.00;57.00;;;;;;4944580;28;90715;-72
2022/06/18 11:29:42;;;;;;;73.32;55.72;;;27.00;57.00;;;;;;4954089;28;91311;-74
2022/06/18 11:32:20;;;;;;;75.03;55.45;;;27.00;57.00;;;;;;4944727;28;95243;-72
2022/06/18 11:34:50;;;;;;;73.53;55.50;;;27.00;57.00;;;;;;4948436;28;90747;-73
2022/06/18 11:37:20;;;;;;;74.57;55.67;;;27.00;57.00;;;;;;4934807;28;91893;-72
2022/06/18 11:39:57;;;;;;;73.70;55.05;;;27.00;57.00;;;;;;4955155;28;89851;-73
2022/06/18 11:42:41;;;;;;;75.05;55.45;;;27.00;56.90;;;;;;4953291;28;89678;-70
2022/06/18 11:45:25;;;;;;;73.72;55.33;;;27.00;56.80;;;;;;4930176;28;91574;-69
2022/06/18 11:48:18;;;;;;;73.53;55.45;;;27.00;56.80;;;;;;4909109;28;91163;-71
2022/06/18 11:51:00;;;;;;;72.82;55.45;;;27.00;56.90;;;;;;4945441;28;90662;-73
2022/06/18 11:53:37;;;;;;;73.00;55.40;;;27.10;56.80;;;;;;4927459;28;91003;-73
2022/06/18 11:56:11;;;;;;;75.18;55.60;;;27.10;56.80;;;;;;4954750;28;90751;-73
2022/06/18 11:58:58;;;;;;;74.10;55.47;;;27.10;56.80;;;;;;4935913;28;90703;-72
2022/06/18 12:01:39;;;;;;;73.35;55.42;;;27.10;56.80;;;;;;4947898;28;89540;-71
2022/06/18 12:04:14;;;;;;;75.03;55.70;;;27.10;56.80;;;;;;4938965;28;90650;-73
2022/06/18 12:06:51;;;;;;;71.95;55.15;;;27.10;56.70;;;;;;4923359;28;91190;-70
2022/06/18 12:09:17;;;;;;;76.07;55.47;;;27.10;56.80;;;;;;4922655;28;91173;-72
2022/06/18 12:12:03;;;;;;;73.03;55.42;;;27.10;56.80;;;;;;4944269;28;90028;-72
2022/06/18 12:14:47;;;;;;;70.63;54.92;;;27.10;56.70;;;;;;4950918;28;90253;-73
2022/06/18 12:17:19;;;;;;;72.72;55.35;;;27.10;56.80;;;;;;4945032;28;91162;-71
2022/06/18 12:19:59;;;;;;;72.60;54.95;;;27.20;56.40;;;;;;4947015;28;90876;-72
2022/06/18 12:22:47;;;;;;;72.75;55.50;;;27.20;56.90;;;;;;4934611;28;94473;-72
2022/06/18 12:25:13;;;;;;;72.28;55.58;;;27.10;56.80;;;;;;4943242;28;91230;-72
2022/06/18 12:27:48;;;;;;;73.65;55.10;;;27.10;56.90;;;;;;4940711;28;90685;-71
2022/06/18 12:30:33;;;;;;;72.35;55.55;;;27.10;56.80;;;;;;4954000;28;90639;-73
2022/06/18 12:33:12;;;;;;;74.05;55.65;;;27.20;56.80;;;;;;4948126;28;96091;-73
2022/06/18 12:35:44;;;;;;;74.78;55.50;;;27.20;56.80;;;;;;4944174;28;89917;-73
2022/06/18 12:38:41;;;;;;;73.80;55.17;;;27.20;56.90;;;;;;4949193;28;91578;-73
2022/06/18 12:41:21;;;;;;;72.80;55.28;;;27.20;57.00;;;;;;4924548;28;91780;-73
2022/06/18 12:44:06;;;;;;;73.43;55.40;;;27.20;57.00;;;;;;4943598;28;90482;-73
2022/06/18 12:46:42;;;;;;;72.38;55.38;;;27.30;57.10;;;;;;4942431;28;92196;-73
2022/06/18 12:49:27;;;;;;;72.63;55.08;;;27.30;57.10;;;;;;4939995;28;91763;-75
2022/06/18 12:52:17;;;;;;;75.85;55.47;;;27.30;57.70;;;;;;4938264;28;91257;-73
2022/06/18 12:54:52;;;;;;;73.00;55.03;;;27.30;57.10;;;;;;4950710;28;91652;-74
2022/06/18 12:57:39;;;;;;;75.68;55.70;;;27.30;57.10;;;;;;4946466;28;89913;-73
2022/06/18 13:00:18;;;;;;;73.75;55.65;;;27.30;57.00;;;;;;4946999;28;91040;-73
2022/06/18 13:02:59;;;;;;;71.30;55.05;;;27.40;57.20;;;;;;4942799;28;90339;-73
2022/06/18 13:05:46;;;;;;;71.80;54.95;;;27.30;57.10;;;;;;4946324;28;89952;-73
2022/06/18 13:08:24;;;;;;;73.20;55.28;;;27.30;57.10;;;;;;4952807;28;92008;-73
2022/06/18 13:11:09;;;;;;;71.25;55.03;;;27.40;57.20;;;;;;4954623;28;93655;-73